Pays
Station

 

Conditions  météo  pour  Worcester, Worcester Regional Airport  -  Etats-Unis    Etats-Unis

  
-18 °C
    
 
 

METAR pour Worcester, Worcester Regional Airport :

KORH 212154Z 29019G26KT 10SM BKN120 M18/M25 A2982 RMK AO2 PK WND 30031/2118 SLP128 T11831250

 

Voici le bulletin pour Worcester, Worcester Regional Airport - Etats-Unis.
 
Le bulletin a été fait il y a 20 minutes, à 21:54 UTC .
Le vent soufflait à la vitesse de 9.8 mètres par seconde avec des rafales jusqu'à 13.4 mètres par seconde de Ouest/Nord-ouest (290°).
 
La température était de -18 °C, avec un point de rosée à -25 °C.
La pression atmosphérique était de 1010 hPa.
L'humidité relative était de 54.0%.
 
Il y avait 5 à 7/8ème de nébulosité à une hauteur de 3658 mètres.
 
La visibilité globale était de 16.1 kilomètres.
 

 
 
 

Pays :   A   B   C   D   E   F   G   H   I   J   K   L   M   N   O   P   Q   R   S   T   U   V   W   Y   Z

 

Partenaires :  Info Météo avec Met'info
Météo Marine avec MeteoMarine.net
Infos Site  |  Infos Légales  |  Crédits  |  Confidentialité
Contactez-nous  |  Ajouter aux favoris
© 2013-2019 METAR - Tous droits réservés